Time;durP1;ratioP1;P1;durP2;ratioP2;P2;SDS_P1;SDS_P2;PMS_P1;PMS_P2;Temp;Humidity;BMP_temperature;BMP_pressure;BME280_temperature;BME280_humidity;BME280_pressure;Samples;Min_cycle;Max_cycle;Signal;HPM_P1;HPM_P2
2022/12/15 00:41:14;;;;;;;;;;;-4.80;99.90;;;;;;5009684;28;19936;-90
2022/12/15 00:43:43;;;;;;;;;;;-4.80;99.90;;;;;;5010860;28;20381;-90
2022/12/15 01:21:25;;;;;;;;;;;-4.80;99.90;;;;;;5036705;28;19929;-89
2022/12/15 01:24:39;;;;;;;;;;;;;;;;;;;;;
2022/12/15 01:27:45;;;;;;;;;;;;;;;;;;;;;
2022/12/15 01:34:23;;;;;;;;;;;;;;;;;;;;;
2022/12/15 01:37:40;;;;;;;;;;;-4.50;99.90;;;;;;4901251;29;20011;-91
2022/12/15 01:43:22;;;;;;;;;;;-4.40;99.90;;;;;;4932801;29;19931;-91
2022/12/15 01:52:06;;;;;;;;;;;-4.40;99.90;;;;;;4937233;29;19993;-90
2022/12/15 01:54:36;;;;;;;;;;;-4.40;99.90;;;;;;4951229;28;20449;-89
2022/12/15 01:57:17;;;;;;;;;;;;;;;;;;;;;
2022/12/15 01:59:47;;;;;;;;;;;-4.40;99.90;;;;;;4930022;29;20403;-89
2022/12/15 02:02:14;;;;;;;;;;;-4.40;99.90;;;;;;4927930;28;19926;-90
2022/12/15 02:04:40;;;;;;;;;;;-4.40;99.90;;;;;;4990355;28;20008;-89
2022/12/15 02:07:12;;;;;;;;;;;-4.40;99.90;;;;;;5014763;28;19936;-89
2022/12/15 02:09:43;;;;;;;;;;;-4.40;99.90;;;;;;4998085;28;19948;-89
2022/12/15 02:12:12;;;;;;;;;;;-4.40;99.90;;;;;;4979487;28;20262;-90
2022/12/15 02:14:57;;;;;;;;;;;-4.50;99.90;;;;;;5025620;28;20289;-89
2022/12/15 02:17:37;;;;;;;;;;;-4.50;99.90;;;;;;5011921;28;20031;-90
2022/12/15 02:20:25;;;;;;;;;;;-4.50;99.90;;;;;;4993706;28;19932;-89
2022/12/15 02:22:54;;;;;;;;;;;-4.50;99.90;;;;;;4989691;28;20403;-90
2022/12/15 02:25:38;;;;;;;;;;;-4.40;99.90;;;;;;4994142;28;19925;-90
2022/12/15 02:28:26;;;;;;;;;;;-4.50;99.90;;;;;;4994570;28;19929;-89
2022/12/15 02:34:07;;;;;;;;;;;-4.30;99.90;;;;;;5011414;28;20325;-90
2022/12/15 02:36:44;;;;;;;;;;;-4.30;99.90;;;;;;4997096;28;19926;-89
2022/12/15 02:39:22;;;;;;;;;;;-4.30;99.90;;;;;;4998323;28;19931;-91
2022/12/15 02:41:50;;;;;;;;;;;-4.30;99.90;;;;;;5014845;28;19929;-89
2022/12/15 02:44:28;;;;;;;;;;;-4.30;99.90;;;;;;5021784;28;20289;-89
2022/12/15 02:47:14;;;;;;;;;;;-4.40;99.90;;;;;;5033425;28;20011;-89
2022/12/15 02:49:43;;;;;;;;;;;-4.30;99.90;;;;;;5019130;28;19929;-90
2022/12/15 02:52:27;;;;;;;;;;;-4.30;99.90;;;;;;5035645;28;20269;-89
2022/12/15 02:54:53;;;;;;;;;;;-4.30;99.90;;;;;;5014195;28;20416;-90
2022/12/15 02:57:26;;;;;;;;;;;-4.40;99.90;;;;;;5017892;28;19929;-90
2022/12/15 03:00:08;;;;;;;;;;;-4.40;99.90;;;;;;5015548;28;19925;-90
2022/12/15 03:02:40;;;;;;;;;;;-4.40;99.90;;;;;;5005706;28;19925;-89
2022/12/15 03:05:11;;;;;;;;;;;-4.50;99.90;;;;;;5018925;28;19925;-90
2022/12/15 03:07:44;;;;;;;;;;;-4.50;99.90;;;;;;5022110;28;19929;-90
2022/12/15 03:10:19;;;;;;;;;;;-4.50;99.90;;;;;;5018452;28;19968;-89
2022/12/15 03:12:49;;;;;;;;;;;-4.60;99.90;;;;;;5018848;28;19935;-89
2022/12/15 03:15:22;;;;;;;;;;;-4.60;99.90;;;;;;5026746;28;19932;-89
2022/12/15 03:17:48;;;;;;;;;;;-4.60;99.90;;;;;;5013334;28;19956;-89
2022/12/15 03:20:18;;;;;;;;;;;-4.60;99.90;;;;;;5027664;28;19925;-89
2022/12/15 03:22:47;;;;;;;;;;;-4.60;99.90;;;;;;5043980;28;19925;-90
2022/12/15 03:25:18;;;;;;;;;;;-4.60;99.90;;;;;;5015896;28;19925;-89
2022/12/15 03:28:00;;;;;;;;;;;-4.60;99.90;;;;;;5020207;28;19925;-90
2022/12/15 03:30:33;;;;;;;;;;;-4.50;99.90;;;;;;5017805;28;19991;-90
2022/12/15 03:33:01;;;;;;;;;;;-4.50;99.90;;;;;;5017444;28;19925;-89
2022/12/15 03:35:32;;;;;;;;;;;-4.50;99.90;;;;;;4998035;28;19936;-90
2022/12/15 03:37:58;;;;;;;;;;;-4.50;99.90;;;;;;5016388;28;19929;-90
2022/12/15 03:40:32;;;;;;;;;;;-4.40;99.90;;;;;;5011380;28;19929;-90
2022/12/15 03:43:00;;;;;;;;;;;-4.40;99.90;;;;;;5035747;28;19983;-90
2022/12/15 03:45:31;;;;;;;;;;;-4.30;99.90;;;;;;5032845;28;19931;-89
2022/12/15 03:48:04;;;;;;;;;;;-4.30;99.90;;;;;;5015549;28;19925;-90
2022/12/15 03:50:37;;;;;;;;;;;-4.40;99.90;;;;;;5006510;28;19925;-90
2022/12/15 03:53:06;;;;;;;;;;;-4.40;99.90;;;;;;5020976;28;19929;-90
2022/12/15 03:55:40;;;;;;;;;;;-4.40;99.90;;;;;;5030297;28;19932;-91
2022/12/15 03:58:05;;;;;;;;;;;-4.40;99.90;;;;;;5009376;28;19998;-89
2022/12/15 04:00:32;;;;;;;;;;;-4.40;99.90;;;;;;5019308;28;20384;-89
2022/12/15 04:03:02;;;;;;;;;;;-4.40;99.90;;;;;;5017357;28;19935;-89
2022/12/15 04:05:29;;;;;;;;;;;-4.40;99.90;;;;;;5047202;28;19967;-90
2022/12/15 04:07:56;;;;;;;;;;;-4.50;99.90;;;;;;5020266;28;19929;-90
2022/12/15 04:10:27;;;;;;;;;;;-4.60;99.90;;;;;;5019382;28;19925;-90
2022/12/15 04:12:57;;;;;;;;;;;-4.50;99.90;;;;;;5020468;28;19980;-90
2022/12/15 04:15:23;;;;;;;;;;;-4.50;99.90;;;;;;5032683;28;19925;-90
2022/12/15 04:17:54;;;;;;;;;;;-4.50;99.90;;;;;;5020517;28;20377;-89
2022/12/15 04:20:20;;;;;;;;;;;-4.50;99.90;;;;;;5015546;28;19925;-90
2022/12/15 04:22:57;;;;;;;;;;;;;;;;;;;;;
2022/12/15 05:31:53;;;;;;;;;;;-4.70;99.90;;;;;;5026833;28;20438;-89
2022/12/15 05:34:20;;;;;;;;;;;-4.60;99.90;;;;;;5024687;28;19967;-90
2022/12/15 05:36:49;;;;;;;;;;;-4.70;99.90;;;;;;5023177;28;19935;-90
2022/12/15 05:39:22;;;;;;;;;;;-4.70;99.90;;;;;;5018679;28;19925;-91
2022/12/15 05:41:51;;;;;;;;;;;-4.70;99.90;;;;;;5020357;28;20371;-90
2022/12/15 05:44:17;;;;;;;;;;;-4.60;99.90;;;;;;5016549;28;19925;-89
2022/12/15 05:46:43;;;;;;;;;;;-4.60;99.90;;;;;;5008592;28;19931;-90
2022/12/15 05:49:10;;;;;;;;;;;-4.70;99.90;;;;;;5015855;28;20055;-90
2022/12/15 05:51:37;;;;;;;;;;;-4.60;99.90;;;;;;5009754;28;20048;-90
2022/12/15 05:54:05;;;;;;;;;;;-4.70;99.90;;;;;;5050191;28;20455;-90
2022/12/15 05:56:31;;;;;;;;;;;-4.60;99.90;;;;;;5012989;28;19959;-89
2022/12/15 05:59:00;;;;;;;;;;;-4.60;99.90;;;;;;5038845;28;19925;-90
2022/12/15 06:01:30;;;;;;;;;;;-4.40;99.90;;;;;;5033973;28;19929;-90
2022/12/15 06:04:01;;;;;;;;;;;-4.40;99.90;;;;;;5018747;28;19932;-89
2022/12/15 06:06:31;;;;;;;;;;;-4.30;99.90;;;;;;5030008;28;19971;-89
2022/12/15 06:09:02;;;;;;;;;;;-4.30;99.90;;;;;;5002246;28;19942;-89
2022/12/15 06:11:28;;;;;;;;;;;-4.20;99.90;;;;;;5007905;28;20278;-90
2022/12/15 06:13:59;;;;;;;;;;;-4.20;99.90;;;;;;5015412;28;19980;-89
2022/12/15 06:16:26;;;;;;;;;;;-4.00;99.90;;;;;;4999164;28;19929;-89
2022/12/15 06:18:59;;;;;;;;;;;-3.90;99.90;;;;;;5013070;28;19932;-89
2022/12/15 06:21:30;;;;;;;;;;;-3.90;99.90;;;;;;5030764;28;19951;-90
2022/12/15 06:23:59;;;;;;;;;;;-3.90;99.90;;;;;;5018076;28;20007;-90
2022/12/15 06:26:36;;;;;;;;;;;-3.80;99.90;;;;;;4997689;28;19929;-89
2022/12/15 06:29:02;;;;;;;;;;;-3.80;99.90;;;;;;5035599;28;19925;-89
2022/12/15 06:31:31;;;;;;;;;;;-3.80;99.90;;;;;;5011473;28;19925;-90
2022/12/15 06:33:57;;;;;;;;;;;-3.80;99.90;;;;;;5002084;28;19929;-89
2022/12/15 06:36:30;;;;;;;;;;;-3.80;99.90;;;;;;5017577;28;20276;-89
2022/12/15 06:39:03;;;;;;;;;;;-3.80;99.90;;;;;;5018406;28;19924;-89
2022/12/15 06:41:31;;;;;;;;;;;-3.80;99.90;;;;;;5025058;28;19929;-89
2022/12/15 06:44:08;;;;;;;;;;;-3.80;99.90;;;;;;5024548;28;19995;-89
2022/12/15 06:46:34;;;;;;;;;;;-3.80;99.90;;;;;;5018436;28;20296;-90
2022/12/15 06:49:07;;;;;;;;;;;-3.80;99.90;;;;;;5018963;28;19940;-91
2022/12/15 06:51:33;;;;;;;;;;;-3.70;99.90;;;;;;5012489;28;19972;-89
2022/12/15 06:54:02;;;;;;;;;;;-3.80;99.90;;;;;;5015191;28;20028;-88
2022/12/15 06:56:29;;;;;;;;;;;-3.70;99.90;;;;;;5007087;28;20364;-87
2022/12/15 06:58:57;;;;;;;;;;;-3.80;99.90;;;;;;5034117;28;20012;-88
2022/12/15 07:01:23;;;;;;;;;;;-3.80;99.90;;;;;;5030279;28;19987;-88
2022/12/15 07:03:51;;;;;;;;;;;-3.80;99.90;;;;;;5014561;28;19931;-89
2022/12/15 07:06:17;;;;;;;;;;;-3.80;99.90;;;;;;5012788;28;19925;-88
2022/12/15 07:08:46;;;;;;;;;;;-3.80;99.90;;;;;;5014997;28;19986;-88
2022/12/15 07:11:12;;;;;;;;;;;-3.80;99.90;;;;;;5012052;28;19933;-88
2022/12/15 07:13:38;;;;;;;;;;;-3.80;99.90;;;;;;5032353;28;20411;-88
2022/12/15 07:16:11;;;;;;;;;;;-3.80;99.90;;;;;;5013187;28;19924;-88
2022/12/15 07:18:36;;;;;;;;;;;-3.70;99.90;;;;;;5015269;28;19971;-88
2022/12/15 07:21:20;;;;;;;;;;;-3.80;99.90;;;;;;5033917;28;19925;-89
2022/12/15 07:23:46;;;;;;;;;;;-3.60;99.90;;;;;;5033189;28;20323;-90
2022/12/15 07:26:12;;;;;;;;;;;-3.60;99.90;;;;;;5012677;28;19925;-90
2022/12/15 07:28:43;;;;;;;;;;;-3.60;99.90;;;;;;5024260;28;19932;-90
2022/12/15 07:31:16;;;;;;;;;;;-3.60;99.90;;;;;;5020395;28;19929;-89
2022/12/15 07:33:50;;;;;;;;;;;-3.50;99.90;;;;;;5029862;28;19925;-90
2022/12/15 07:36:17;;;;;;;;;;;-3.40;99.90;;;;;;5028942;28;19925;-90
2022/12/15 07:38:46;;;;;;;;;;;-3.40;99.90;;;;;;5038728;28;19924;-91
2022/12/15 07:41:16;;;;;;;;;;;-3.40;99.90;;;;;;5033483;28;19933;-93
2022/12/15 07:43:44;;;;;;;;;;;-3.40;99.90;;;;;;5026097;28;19925;-91
2022/12/15 07:46:20;;;;;;;;;;;-3.50;99.90;;;;;;4998160;28;20339;-91
2022/12/15 07:48:51;;;;;;;;;;;-3.40;99.90;;;;;;5021203;28;20395;-90
2022/12/15 07:51:23;;;;;;;;;;;-3.50;99.90;;;;;;5022023;28;20591;-90
2022/12/15 07:53:49;;;;;;;;;;;-3.70;99.90;;;;;;5037182;28;19970;-93
2022/12/15 07:56:19;;;;;;;;;;;-3.70;99.90;;;;;;5035408;28;20369;-90
2022/12/15 07:58:50;;;;;;;;;;;-2.50;99.90;;;;;;5021483;28;20272;-90
2022/12/15 08:01:18;;;;;;;;;;;-3.40;99.90;;;;;;5020897;28;19940;-90
2022/12/15 08:03:44;;;;;;;;;;;-1.50;99.90;;;;;;5036712;28;19932;-91
2022/12/15 08:06:13;;;;;;;;;;;-4.90;99.90;;;;;;5012542;28;19925;-91
2022/12/15 08:08:43;;;;;;;;;;;-2.30;99.90;;;;;;5037665;28;19925;-90
2022/12/15 08:11:10;;;;;;;;;;;-2.60;99.90;;;;;;5019227;28;19932;-91
2022/12/15 08:13:40;;;;;;;;;;;-2.90;99.90;;;;;;5024528;28;19932;-90
2022/12/15 08:16:08;;;;;;;;;;;-4.40;99.90;;;;;;5020537;28;19928;-91
2022/12/15 08:18:42;;;;;;;;;;;-2.50;99.90;;;;;;5011223;28;19983;-92
2022/12/15 08:21:08;;;;;;;;;;;-4.30;99.90;;;;;;5017164;28;19936;-91
2022/12/15 08:23:37;;;;;;;;;;;0.20;99.90;;;;;;5034873;28;19925;-92
2022/12/15 08:26:10;;;;;;;;;;;-1.20;99.90;;;;;;5011151;28;19937;-93
2022/12/15 08:28:47;;;;;;;;;;;;;;;;;;;;;
2022/12/15 08:31:38;;;;;;;;;;;-2.60;99.90;;;;;;5042776;28;19979;-92
2022/12/15 08:37:15;;;;;;;;;;;-3.10;99.90;;;;;;5027403;28;19990;-92
2022/12/15 08:39:44;;;;;;;;;;;-0.50;99.90;;;;;;5014862;28;19947;-91
2022/12/15 08:42:17;;;;;;;;;;;-2.90;99.90;;;;;;5017976;28;20622;-91
2022/12/15 08:44:46;;;;;;;;;;;-5.10;99.90;;;;;;5019185;28;20324;-92
2022/12/15 08:47:43;;;;;;;;;;;;;;;;;;;;;
2022/12/15 08:50:15;;;;;;;;;;;-2.40;99.90;;;;;;5033878;28;19925;-93
2022/12/15 08:52:41;;;;;;;;;;;-1.10;99.90;;;;;;5019877;28;20438;-91
2022/12/15 08:55:19;;;;;;;;;;;-2.40;99.90;;;;;;5008388;28;19925;-92
2022/12/15 08:57:51;;;;;;;;;;;-2.50;99.90;;;;;;5017764;28;19952;-92
2022/12/15 09:00:46;;;;;;;;;;;;;;;;;;;;;
2022/12/15 09:03:26;;;;;;;;;;;-2.80;99.90;;;;;;5036741;28;19971;-91
2022/12/15 09:06:05;;;;;;;;;;;-2.50;99.90;;;;;;5019107;28;19925;-93
2022/12/15 09:08:35;;;;;;;;;;;-2.20;99.90;;;;;;5005121;28;19939;-92
2022/12/15 09:11:02;;;;;;;;;;;-1.50;99.90;;;;;;5032639;28;19925;-91
2022/12/15 09:13:34;;;;;;;;;;;-1.10;99.90;;;;;;5049127;28;19988;-91
2022/12/15 09:16:01;;;;;;;;;;;-2.10;99.90;;;;;;5025614;28;19925;-91
2022/12/15 09:18:27;;;;;;;;;;;-2.80;99.90;;;;;;5024343;28;19974;-91
2022/12/15 09:21:02;;;;;;;;;;;-3.70;99.90;;;;;;5031132;28;19925;-92
2022/12/15 09:23:41;;;;;;;;;;;;;;;;;;;;;
2022/12/15 09:26:19;;;;;;;;;;;-1.30;99.90;;;;;;5056694;28;20273;-93
2022/12/15 09:28:51;;;;;;;;;;;-2.20;99.90;;;;;;5026436;28;19947;-93
2022/12/15 09:31:36;;;;;;;;;;;-2.30;99.90;;;;;;5026210;28;19956;-92
2022/12/15 09:34:12;;;;;;;;;;;-2.00;99.90;;;;;;5043501;28;19978;-92
2022/12/15 09:36:49;;;;;;;;;;;-3.10;99.90;;;;;;5019701;28;20011;-93
2022/12/15 09:39:31;;;;;;;;;;;;;;;;;;;;;
2022/12/15 09:42:04;;;;;;;;;;;-2.30;99.90;;;;;;5055443;28;19937;-93
2022/12/15 09:44:53;;;;;;;;;;;;;;;;;;;;;
2022/12/15 09:47:56;;;;;;;;;;;-2.10;99.90;;;;;;5049839;28;19925;-93
2022/12/15 09:50:40;;;;;;;;;;;-2.10;99.90;;;;;;5038186;28;20051;-92
2022/12/15 09:53:12;;;;;;;;;;;-3.20;99.90;;;;;;5033311;28;19915;-92
2022/12/15 09:55:44;;;;;;;;;;;-1.70;99.90;;;;;;5032385;28;19937;-91
2022/12/15 09:58:59;;;;;;;;;;;-1.90;99.90;;;;;;5056027;28;19952;-92
2022/12/15 10:08:12;;;;;;;;;;;-1.40;99.90;;;;;;5004820;28;19921;-92
2022/12/15 10:14:16;;;;;;;;;;;-1.50;99.90;;;;;;5017172;28;20011;-94
2022/12/15 10:16:47;;;;;;;;;;;-1.10;99.90;;;;;;5011520;28;19921;-93
2022/12/15 10:23:10;;;;;;;;;;;;;;;;;;;;;
2022/12/15 10:25:40;;;;;;;;;;;-1.30;99.90;;;;;;5031383;28;19921;-92
2022/12/15 10:28:52;;;;;;;;;;;;;;;;;;;;;
2022/12/15 10:31:43;;;;;;;;;;;-1.10;99.90;;;;;;5025473;28;19925;-93
2022/12/15 10:34:26;;;;;;;;;;;-1.50;99.90;;;;;;5034464;28;19921;-92
2022/12/15 10:37:24;;;;;;;;;;;-1.00;99.90;;;;;;5032560;28;19980;-93
2022/12/15 10:40:29;;;;;;;;;;;;;;;;;;;;;
2022/12/15 10:43:37;;;;;;;;;;;;;;;;;;;;;
2022/12/15 10:46:18;;;;;;;;;;;-1.80;99.90;;;;;;5054167;28;19921;-93
2022/12/15 10:52:26;;;;;;;;;;;;;;;;;;;;;
2022/12/15 10:58:28;;;;;;;;;;;-0.40;99.90;;;;;;5022292;28;20357;-92
2022/12/15 11:02:11;;;;;;;;;;;;;;;;;;;;;
2022/12/15 11:05:16;;;;;;;;;;;-0.40;99.90;;;;;;4906928;29;19931;-94
2022/12/15 11:08:03;;;;;;;;;;;;;;;;;;;;;
2022/12/15 11:13:45;;;;;;;;;;;0.00;99.90;;;;;;5036547;28;19933;-93
2022/12/15 11:16:20;;;;;;;;;;;0.10;99.90;;;;;;5012317;28;19968;-94
2022/12/15 11:19:28;;;;;;;;;;;0.20;99.90;;;;;;4998705;28;20059;-94
2022/12/15 11:22:13;;;;;;;;;;;;;;;;;;;;;
2022/12/15 11:24:47;;;;;;;;;;;0.00;99.90;;;;;;5034048;28;19925;-92
2022/12/15 11:27:48;;;;;;;;;;;0.20;99.90;;;;;;5019411;28;19937;-93
2022/12/15 11:30:21;;;;;;;;;;;-0.60;99.90;;;;;;4970525;28;19929;-93
2022/12/15 11:33:05;;;;;;;;;;;-0.40;99.90;;;;;;5021909;28;20396;-92
2022/12/15 11:35:34;;;;;;;;;;;0.50;99.90;;;;;;5024078;28;19925;-92
2022/12/15 11:38:32;;;;;;;;;;;0.60;99.90;;;;;;5050473;28;19940;-94
2022/12/15 11:41:04;;;;;;;;;;;0.60;99.90;;;;;;5004235;28;19983;-93
2022/12/15 11:43:32;;;;;;;;;;;0.60;99.90;;;;;;5036311;28;19929;-93
2022/12/15 11:46:44;;;;;;;;;;;;;;;;;;;;;
2022/12/15 11:49:40;;;;;;;;;;;0.90;99.90;;;;;;4982202;28;19925;-92
2022/12/15 11:52:30;;;;;;;;;;;0.70;99.90;;;;;;5038157;28;19933;-95
2022/12/15 11:55:06;;;;;;;;;;;0.70;99.90;;;;;;5031095;28;19928;-94
2022/12/15 11:57:41;;;;;;;;;;;-0.10;99.90;;;;;;5017681;28;19925;-96
2022/12/15 12:00:18;;;;;;;;;;;0.90;99.90;;;;;;5023666;28;19925;-95
2022/12/15 12:03:22;;;;;;;;;;;1.40;99.90;;;;;;5030316;28;19925;-95
2022/12/15 12:06:03;;;;;;;;;;;0.20;99.90;;;;;;4980312;28;19925;-95
2022/12/15 12:08:29;;;;;;;;;;;1.10;99.90;;;;;;4979651;28;19930;-94
2022/12/15 12:11:23;;;;;;;;;;;;;;;;;;;;;
2022/12/15 12:14:12;;;;;;;;;;;0.90;99.90;;;;;;4987663;28;19977;-93
2022/12/15 12:20:22;;;;;;;;;;;;;;;;;;;;;
2022/12/15 12:22:54;;;;;;;;;;;1.10;99.90;;;;;;5031802;28;19975;-93
2022/12/15 12:25:24;;;;;;;;;;;0.90;99.90;;;;;;5032001;28;19924;-92
2022/12/15 12:27:53;;;;;;;;;;;1.00;99.90;;;;;;5017524;28;19925;-93
2022/12/15 12:30:28;;;;;;;;;;;0.90;99.90;;;;;;5037699;28;19931;-94
2022/12/15 12:33:16;;;;;;;;;;;0.90;99.90;;;;;;5038575;28;19924;-93
2022/12/15 12:42:43;;;;;;;;;;;0.80;99.90;;;;;;5032290;28;20448;-94
2022/12/15 12:45:32;;;;;;;;;;;1.40;99.90;;;;;;5036972;28;19931;-95
2022/12/15 12:55:03;;;;;;;;;;;-0.20;99.90;;;;;;4939531;29;19926;-95
2022/12/15 12:57:59;;;;;;;;;;;1.30;99.90;;;;;;4949074;29;19927;-95
2022/12/15 13:07:27;;;;;;;;;;;;;;;;;;;;;
2022/12/15 13:10:08;;;;;;;;;;;1.20;99.90;;;;;;5024919;22;19925;-88
2022/12/15 13:12:53;;;;;;;;;;;1.30;99.90;;;;;;5024190;28;19974;-88
2022/12/15 13:15:19;;;;;;;;;;;1.30;99.90;;;;;;5044735;28;19960;-87
2022/12/15 13:17:48;;;;;;;;;;;1.30;99.90;;;;;;5028365;28;19928;-88
2022/12/15 13:20:19;;;;;;;;;;;1.30;99.90;;;;;;5045496;28;19988;-87
2022/12/15 13:22:45;;;;;;;;;;;1.30;99.90;;;;;;5029735;28;19970;-88
2022/12/15 13:25:29;;;;;;;;;;;1.30;99.90;;;;;;5032979;28;20015;-88
2022/12/15 13:27:57;;;;;;;;;;;1.30;99.90;;;;;;5046493;28;19925;-88
2022/12/15 13:30:23;;;;;;;;;;;1.40;99.90;;;;;;5041606;28;19940;-88
2022/12/15 13:33:13;;;;;;;;;;;1.40;99.90;;;;;;5029107;28;19929;-88
2022/12/15 13:35:40;;;;;;;;;;;1.40;99.90;;;;;;5038716;28;19925;-88
2022/12/15 13:38:15;;;;;;;;;;;1.40;99.90;;;;;;5043936;28;20000;-88
2022/12/15 13:40:47;;;;;;;;;;;1.50;99.90;;;;;;5045485;28;19980;-88
2022/12/15 13:43:25;;;;;;;;;;;1.40;99.90;;;;;;5028592;28;19935;-88
2022/12/15 13:45:52;;;;;;;;;;;1.40;99.90;;;;;;5044690;28;20452;-88
2022/12/15 13:48:20;;;;;;;;;;;1.40;99.90;;;;;;5055947;28;19913;-88
2022/12/15 13:50:58;;;;;;;;;;;1.30;99.90;;;;;;5038409;28;19924;-87
2022/12/15 13:53:25;;;;;;;;;;;1.30;99.90;;;;;;5043234;28;20388;-87
2022/12/15 13:55:53;;;;;;;;;;;1.50;99.90;;;;;;5048670;28;19929;-88
2022/12/15 13:58:20;;;;;;;;;;;1.30;99.90;;;;;;5029343;28;19925;-89
2022/12/15 14:00:56;;;;;;;;;;;1.30;99.90;;;;;;5028286;28;19925;-90
2022/12/15 14:03:22;;;;;;;;;;;1.30;99.90;;;;;;5029805;28;19931;-90
2022/12/15 14:05:52;;;;;;;;;;;1.30;99.90;;;;;;5032795;28;19929;-89
2022/12/15 14:08:18;;;;;;;;;;;1.30;99.90;;;;;;5025047;28;19925;-88
2022/12/15 14:10:47;;;;;;;;;;;1.40;99.90;;;;;;5026835;28;20422;-88
2022/12/15 14:13:16;;;;;;;;;;;1.40;99.90;;;;;;5029617;28;19964;-88
2022/12/15 14:15:43;;;;;;;;;;;1.40;99.90;;;;;;5051535;28;19984;-88
2022/12/15 14:18:21;;;;;;;;;;;1.40;99.90;;;;;;5042674;28;19924;-88
2022/12/15 14:20:46;;;;;;;;;;;1.40;99.90;;;;;;5045137;28;19956;-87
2022/12/15 14:23:19;;;;;;;;;;;1.40;99.90;;;;;;5026356;28;19928;-88
2022/12/15 14:25:55;;;;;;;;;;;1.40;99.90;;;;;;5026481;28;19920;-88
2022/12/15 14:28:40;;;;;;;;;;;1.40;99.90;;;;;;5035435;28;19924;-88
2022/12/15 14:31:09;;;;;;;;;;;1.40;99.90;;;;;;5027128;28;20007;-88
2022/12/15 14:33:37;;;;;;;;;;;1.40;99.90;;;;;;5042572;28;19925;-88
2022/12/15 14:36:05;;;;;;;;;;;1.40;99.90;;;;;;5020570;28;19925;-88
2022/12/15 14:38:36;;;;;;;;;;;1.30;99.90;;;;;;5046560;28;19925;-88
2022/12/15 14:41:03;;;;;;;;;;;1.30;99.90;;;;;;5044118;28;19924;-87
2022/12/15 14:43:34;;;;;;;;;;;1.30;99.90;;;;;;5031077;28;19933;-87
2022/12/15 14:46:26;;;;;;;;;;;1.30;99.90;;;;;;5044944;28;19925;-88
2022/12/15 14:48:54;;;;;;;;;;;1.20;99.90;;;;;;5055091;28;19932;-87
2022/12/15 14:51:20;;;;;;;;;;;1.20;99.90;;;;;;5046312;28;19936;-87
2022/12/15 14:53:48;;;;;;;;;;;1.20;99.90;;;;;;5048587;28;19925;-87
2022/12/15 14:56:21;;;;;;;;;;;1.20;99.90;;;;;;5030217;28;20058;-87
2022/12/15 14:58:53;;;;;;;;;;;1.10;99.90;;;;;;5035149;28;20000;-88
2022/12/15 15:01:23;;;;;;;;;;;1.10;99.90;;;;;;5039620;28;19913;-87
2022/12/15 15:04:03;;;;;;;;;;;1.10;99.90;;;;;;5041825;28;19924;-87
2022/12/15 15:06:30;;;;;;;;;;;1.10;99.90;;;;;;5049580;28;19993;-87
2022/12/15 15:08:56;;;;;;;;;;;1.10;99.90;;;;;;5032228;28;19951;-87
2022/12/15 15:11:28;;;;;;;;;;;1.10;99.90;;;;;;5016729;28;19925;-87
2022/12/15 15:13:58;;;;;;;;;;;1.10;99.90;;;;;;5033964;28;19928;-88
2022/12/15 15:16:24;;;;;;;;;;;1.10;99.90;;;;;;5047057;28;19949;-88
2022/12/15 15:18:52;;;;;;;;;;;1.10;99.90;;;;;;5026346;28;20037;-88
2022/12/15 15:21:20;;;;;;;;;;;1.10;99.90;;;;;;5030542;28;19925;-88
2022/12/15 15:24:00;;;;;;;;;;;1.00;99.90;;;;;;5034289;28;19924;-87
2022/12/15 15:26:26;;;;;;;;;;;1.00;99.90;;;;;;5029043;28;19925;-87
2022/12/15 15:28:52;;;;;;;;;;;0.90;99.90;;;;;;5048328;28;19925;-88
2022/12/15 15:31:29;;;;;;;;;;;0.80;99.90;;;;;;5030858;28;19924;-87
2022/12/15 15:33:56;;;;;;;;;;;0.80;99.90;;;;;;5034511;28;19994;-88
2022/12/15 15:36:26;;;;;;;;;;;0.70;99.90;;;;;;5046366;28;19948;-87
2022/12/15 15:38:51;;;;;;;;;;;0.60;99.90;;;;;;5030135;28;19979;-88
2022/12/15 15:41:18;;;;;;;;;;;0.60;99.90;;;;;;5029141;28;20316;-87
2022/12/15 15:43:44;;;;;;;;;;;0.50;99.90;;;;;;5040265;28;19929;-88
2022/12/15 15:46:13;;;;;;;;;;;0.80;99.90;;;;;;5027607;28;19929;-88
2022/12/15 15:48:49;;;;;;;;;;;0.40;99.90;;;;;;5047285;28;20419;-87
2022/12/15 15:51:15;;;;;;;;;;;0.30;99.90;;;;;;5027875;28;19933;-87
2022/12/15 15:53:40;;;;;;;;;;;0.30;99.90;;;;;;5047263;28;19971;-88
2022/12/15 15:56:08;;;;;;;;;;;0.30;99.90;;;;;;5029401;28;19952;-91
2022/12/15 15:58:34;;;;;;;;;;;0.20;99.90;;;;;;5045307;28;19972;-88
2022/12/15 16:01:00;;;;;;;;;;;0.20;99.90;;;;;;5027221;28;19935;-87
2022/12/15 16:03:25;;;;;;;;;;;0.20;99.90;;;;;;5017841;28;19982;-88
2022/12/15 16:05:51;;;;;;;;;;;0.20;99.90;;;;;;5029080;28;19947;-87
2022/12/15 16:08:20;;;;;;;;;;;0.30;99.90;;;;;;5012950;28;19925;-88
2022/12/15 16:10:47;;;;;;;;;;;0.30;99.90;;;;;;5036004;28;20070;-88
2022/12/15 16:13:14;;;;;;;;;;;0.20;99.90;;;;;;5059409;28;19921;-87
2022/12/15 16:15:40;;;;;;;;;;;0.20;99.90;;;;;;5052491;28;19932;-87
2022/12/15 16:18:06;;;;;;;;;;;0.30;99.90;;;;;;5035077;28;19925;-86
2022/12/15 16:20:32;;;;;;;;;;;0.30;99.90;;;;;;5048922;28;19932;-88
2022/12/15 16:22:59;;;;;;;;;;;0.30;99.90;;;;;;5059546;28;20281;-88
2022/12/15 16:25:33;;;;;;;;;;;0.30;99.90;;;;;;5041855;28;19921;-88
2022/12/15 16:27:59;;;;;;;;;;;0.30;99.90;;;;;;5031550;28;19929;-87
2022/12/15 16:30:26;;;;;;;;;;;0.50;99.90;;;;;;5034207;28;19975;-88
2022/12/15 16:32:52;;;;;;;;;;;0.30;99.90;;;;;;5040665;28;19983;-87
2022/12/15 16:35:18;;;;;;;;;;;0.30;99.90;;;;;;5043295;28;20327;-87
2022/12/15 16:37:48;;;;;;;;;;;0.30;99.90;;;;;;5047398;28;19960;-88
2022/12/15 16:40:18;;;;;;;;;;;0.30;99.90;;;;;;5027229;28;19937;-89
2022/12/15 16:42:47;;;;;;;;;;;0.30;99.90;;;;;;5047833;28;19932;-89
2022/12/15 16:45:17;;;;;;;;;;;0.20;99.90;;;;;;5029154;28;19925;-89
2022/12/15 16:47:43;;;;;;;;;;;0.00;99.90;;;;;;5046958;28;19925;-88
2022/12/15 16:50:13;;;;;;;;;;;0.20;99.90;;;;;;5008853;28;19924;-87
2022/12/15 16:52:40;;;;;;;;;;;0.20;99.90;;;;;;5021155;28;19931;-88
2022/12/15 16:55:07;;;;;;;;;;;0.20;99.90;;;;;;5023721;28;20448;-89
2022/12/15 16:57:33;;;;;;;;;;;0.20;99.90;;;;;;5023410;28;20362;-88
2022/12/15 17:00:00;;;;;;;;;;;0.20;99.90;;;;;;5025866;28;19967;-89
2022/12/15 17:02:27;;;;;;;;;;;0.20;99.90;;;;;;5039454;28;19988;-89
2022/12/15 17:04:54;;;;;;;;;;;0.20;99.90;;;;;;5024708;28;20047;-90
2022/12/15 17:07:20;;;;;;;;;;;0.20;99.90;;;;;;5030359;28;19979;-88
2022/12/15 17:09:46;;;;;;;;;;;0.10;99.90;;;;;;5032889;28;19926;-87
2022/12/15 17:12:13;;;;;;;;;;;0.10;99.90;;;;;;5012963;28;20451;-86
2022/12/15 17:14:39;;;;;;;;;;;0.10;99.90;;;;;;5019479;28;19924;-87
2022/12/15 17:17:15;;;;;;;;;;;0.00;99.90;;;;;;5025624;28;19975;-88
2022/12/15 17:19:40;;;;;;;;;;;0.00;99.90;;;;;;5031869;28;20009;-88
2022/12/15 17:22:07;;;;;;;;;;;0.00;99.90;;;;;;5037562;28;19944;-87
2022/12/15 17:24:32;;;;;;;;;;;0.30;99.90;;;;;;5041855;28;20010;-89
2022/12/15 17:26:58;;;;;;;;;;;1.20;99.90;;;;;;5021335;28;19925;-87
2022/12/15 17:29:24;;;;;;;;;;;-0.10;99.90;;;;;;5034856;28;19929;-87
2022/12/15 17:31:49;;;;;;;;;;;-0.20;99.90;;;;;;5029091;28;19932;-87
2022/12/15 17:34:29;;;;;;;;;;;-0.30;99.90;;;;;;5026987;28;19992;-87
2022/12/15 17:36:59;;;;;;;;;;;-0.40;99.90;;;;;;5027177;28;19929;-87
2022/12/15 17:39:26;;;;;;;;;;;-0.50;99.90;;;;;;5026318;28;19936;-88
2022/12/15 17:41:53;;;;;;;;;;;-0.50;99.90;;;;;;5032127;28;20016;-87
2022/12/15 17:44:26;;;;;;;;;;;-0.60;99.90;;;;;;5041600;28;19935;-87
2022/12/15 17:46:51;;;;;;;;;;;-0.60;99.90;;;;;;5046436;28;19929;-87
2022/12/15 17:49:17;;;;;;;;;;;-0.70;99.90;;;;;;5017269;28;19943;-87
2022/12/15 17:51:43;;;;;;;;;;;-0.20;99.90;;;;;;5041990;28;19921;-87
2022/12/15 17:54:16;;;;;;;;;;;-0.70;99.90;;;;;;5039607;28;19940;-89
2022/12/15 17:56:43;;;;;;;;;;;-0.80;99.90;;;;;;5030113;28;20009;-88
2022/12/15 17:59:13;;;;;;;;;;;-0.80;99.90;;;;;;5029852;28;20488;-88
2022/12/15 18:01:38;;;;;;;;;;;-0.70;99.90;;;;;;5051487;28;20490;-88
2022/12/15 18:04:04;;;;;;;;;;;-0.70;99.90;;;;;;5016929;28;19935;-87
2022/12/15 18:06:29;;;;;;;;;;;-0.70;99.90;;;;;;5033455;28;19925;-86
2022/12/15 18:08:55;;;;;;;;;;;0.80;99.90;;;;;;5032841;28;19924;-88
2022/12/15 18:11:21;;;;;;;;;;;-0.50;99.90;;;;;;5046222;28;19965;-86
2022/12/15 18:13:49;;;;;;;;;;;-0.50;99.90;;;;;;5046087;28;19926;-88
2022/12/15 18:16:15;;;;;;;;;;;-0.70;99.90;;;;;;5011803;28;19925;-85
2022/12/15 18:18:40;;;;;;;;;;;-0.60;99.90;;;;;;5046833;28;19925;-86
2022/12/15 18:21:13;;;;;;;;;;;-0.60;99.90;;;;;;5046052;28;19925;-86
2022/12/15 18:23:39;;;;;;;;;;;-0.60;99.90;;;;;;5054208;28;19971;-87
2022/12/15 18:26:04;;;;;;;;;;;-0.10;99.90;;;;;;5060088;28;19921;-87
2022/12/15 18:28:31;;;;;;;;;;;-0.60;99.90;;;;;;5051564;28;19936;-87
2022/12/15 18:31:09;;;;;;;;;;;-0.50;99.90;;;;;;5045703;28;19968;-86
2022/12/15 18:33:34;;;;;;;;;;;-0.50;99.90;;;;;;5048840;28;20031;-86
2022/12/15 18:36:00;;;;;;;;;;;-0.60;99.90;;;;;;5036666;28;19925;-87
2022/12/15 18:38:27;;;;;;;;;;;-0.50;99.90;;;;;;5040029;28;19963;-88
2022/12/15 18:40:55;;;;;;;;;;;-0.60;99.90;;;;;;5047058;28;19944;-87
2022/12/15 18:43:31;;;;;;;;;;;-0.60;99.90;;;;;;5048419;28;19917;-86
2022/12/15 18:45:57;;;;;;;;;;;-0.60;99.90;;;;;;5044908;28;19976;-88
2022/12/15 18:48:27;;;;;;;;;;;-0.60;99.90;;;;;;5045510;28;19921;-88